createdAt,value
2018-11-03T00:00:55.245Z,14.63
2018-11-03T00:03:23.501Z,13.22
2018-11-03T00:05:51.618Z,13.00
2018-11-03T00:08:19.725Z,12.33
2018-11-03T00:10:47.838Z,13.03
2018-11-03T00:13:15.966Z,12.80
2018-11-03T00:15:44.275Z,11.35
2018-11-03T00:18:12.402Z,12.43
2018-11-03T00:20:40.501Z,12.33
2018-11-03T00:23:09.204Z,13.88
2018-11-03T00:25:37.378Z,11.88
2018-11-03T00:28:05.721Z,11.25
2018-11-03T00:30:33.837Z,11.50
2018-11-03T00:33:01.956Z,13.30
2018-11-03T00:35:30.086Z,11.97
2018-11-03T00:37:58.196Z,11.68
2018-11-03T00:40:26.299Z,12.15
2018-11-03T00:42:54.500Z,12.50
2018-11-03T00:45:22.519Z,13.20
2018-11-03T00:47:50.620Z,11.50
2018-11-03T00:50:18.731Z,11.28
2018-11-03T00:52:46.854Z,11.22
2018-11-03T00:55:14.997Z,12.23
2018-11-03T00:57:43.462Z,11.30
2018-11-03T01:00:13.751Z,11.95
2018-11-03T01:02:44.110Z,11.20
2018-11-03T01:05:12.692Z,10.20
2018-11-03T01:07:41.675Z,10.93
2018-11-03T01:10:09.814Z,10.55
2018-11-03T01:12:38.645Z,10.38
2018-11-03T01:15:08.744Z,12.00
2018-11-03T01:17:36.832Z,12.23
2018-11-03T01:20:05.994Z,12.75
2018-11-03T01:22:34.120Z,11.68
2018-11-03T01:25:02.221Z,10.68
2018-11-03T01:27:30.337Z,10.80
2018-11-03T01:29:58.428Z,12.53
2018-11-03T01:32:26.570Z,11.90
2018-11-03T01:34:54.663Z,11.05
2018-11-03T01:37:22.765Z,11.65
2018-11-03T01:39:50.866Z,12.20
2018-11-03T01:42:18.977Z,10.98
2018-11-03T01:44:47.089Z,12.30
2018-11-03T01:47:15.209Z,12.25
2018-11-03T01:49:43.336Z,13.95
2018-11-03T01:52:11.471Z,12.13
2018-11-03T01:54:39.577Z,12.25
2018-11-03T01:57:07.687Z,12.30
2018-11-03T01:59:35.790Z,12.35
2018-11-03T02:02:03.912Z,11.55
2018-11-03T02:04:32.305Z,11.22
2018-11-03T02:07:00.395Z,12.18
2018-11-03T02:09:28.501Z,12.15
2018-11-03T02:11:56.608Z,12.53
2018-11-03T02:14:24.755Z,13.00
2018-11-03T02:16:52.852Z,15.48
2018-11-03T02:19:20.976Z,14.55
2018-11-03T02:21:49.078Z,17.25
2018-11-03T02:24:17.180Z,13.50
2018-11-03T02:26:45.289Z,14.10
2018-11-03T02:29:13.409Z,16.85
2018-11-03T02:31:41.563Z,20.43
2018-11-03T02:34:09.719Z,18.85
2018-11-03T02:36:37.859Z,17.23
2018-11-03T02:39:07.252Z,16.17
2018-11-03T02:41:35.387Z,15.40
2018-11-03T02:44:03.649Z,15.10
2018-11-03T02:46:31.790Z,14.80
2018-11-03T02:48:59.940Z,16.52
2018-11-03T02:51:28.081Z,16.23
2018-11-03T02:53:56.222Z,18.62
2018-11-03T02:56:24.353Z,18.80
2018-11-03T02:58:52.701Z,18.30
2018-11-03T03:01:20.884Z,14.93
2018-11-03T03:03:49.056Z,15.72
2018-11-03T03:06:17.209Z,16.67
2018-11-03T03:08:45.606Z,16.15
2018-11-03T03:11:13.753Z,15.63
2018-11-03T03:13:41.890Z,15.45
2018-11-03T03:16:10.032Z,16.27
2018-11-03T03:18:38.166Z,14.47
2018-11-03T03:21:06.774Z,14.73
2018-11-03T03:23:35.012Z,14.98
2018-11-03T03:26:03.164Z,15.13
2018-11-03T03:28:31.309Z,15.05
2018-11-03T03:30:59.432Z,17.45
2018-11-03T03:33:27.557Z,15.40
2018-11-03T03:35:55.664Z,14.83
2018-11-03T03:38:23.783Z,15.05
2018-11-03T03:40:51.952Z,15.00
2018-11-03T03:43:20.153Z,15.88
2018-11-03T03:45:48.266Z,15.05
2018-11-03T03:48:16.387Z,13.65
2018-11-03T03:50:44.498Z,14.20
2018-11-03T03:53:12.622Z,13.78
2018-11-03T03:55:40.733Z,14.28
2018-11-03T03:58:09.018Z,15.90
2018-11-03T04:00:37.122Z,15.00
2018-11-03T04:03:05.341Z,15.45
2018-11-03T04:05:33.488Z,14.73
2018-11-03T04:08:01.634Z,14.65
2018-11-03T04:10:29.747Z,14.20
2018-11-03T04:12:57.837Z,14.13
2018-11-03T04:15:26.104Z,15.03
2018-11-03T04:17:54.208Z,15.75
2018-11-03T04:20:22.325Z,16.40
2018-11-03T04:22:50.437Z,17.90
2018-11-03T04:25:18.546Z,18.60
2018-11-03T04:27:46.655Z,20.12
2018-11-03T04:30:14.761Z,17.70
2018-11-03T04:32:43.629Z,16.97
2018-11-03T04:35:11.910Z,16.17
2018-11-03T04:37:40.286Z,18.75
2018-11-03T04:40:10.101Z,18.55
2018-11-03T04:42:38.406Z,16.82
2018-11-03T04:45:07.071Z,17.00
2018-11-03T04:47:35.162Z,19.30
2018-11-03T04:50:03.280Z,20.88
2018-11-03T04:52:31.414Z,19.23
2018-11-03T04:54:59.550Z,16.32
2018-11-03T04:57:27.830Z,20.02
2018-11-03T04:59:55.968Z,22.05
2018-11-03T05:02:24.179Z,21.95
2018-11-03T05:04:52.303Z,20.55
2018-11-03T05:07:20.453Z,19.70
2018-11-03T05:09:48.648Z,18.17
2018-11-03T05:12:16.686Z,19.55
2018-11-03T05:14:44.809Z,18.85
2018-11-03T05:17:12.910Z,21.55
2018-11-03T05:19:41.031Z,21.85
2018-11-03T05:22:09.166Z,20.48
2018-11-03T05:24:37.270Z,18.45
2018-11-03T05:27:05.368Z,21.50
2018-11-03T05:29:33.501Z,20.75
2018-11-03T05:32:01.630Z,20.25
2018-11-03T05:34:29.940Z,18.80
2018-11-03T05:36:58.047Z,18.87
2018-11-03T05:39:26.158Z,18.12
2018-11-03T05:41:54.248Z,20.23
2018-11-03T05:44:22.353Z,20.17
2018-11-03T05:46:50.451Z,18.15
2018-11-03T05:49:18.553Z,18.60
2018-11-03T05:51:46.665Z,18.67
2018-11-03T05:54:14.769Z,21.33
2018-11-03T05:56:42.885Z,22.22
2018-11-03T05:59:11.013Z,23.30
2018-11-03T06:01:39.113Z,22.37
2018-11-03T06:04:07.425Z,23.45
2018-11-03T06:06:35.797Z,25.25
2018-11-03T06:09:04.794Z,24.45
2018-11-03T06:11:32.889Z,23.73
2018-11-03T06:14:01.008Z,21.27
2018-11-03T06:16:29.103Z,21.12
2018-11-03T06:18:57.192Z,22.93
2018-11-03T06:21:25.301Z,23.42
2018-11-03T06:23:53.520Z,24.57
2018-11-03T06:26:21.630Z,21.15
2018-11-03T06:28:49.767Z,21.57
2018-11-03T06:31:18.156Z,21.65
2018-11-03T06:33:46.295Z,21.57
2018-11-03T06:36:14.435Z,20.68
2018-11-03T06:38:42.690Z,22.27
2018-11-03T06:41:10.804Z,28.55
2018-11-03T06:43:38.944Z,24.95
2018-11-03T06:46:07.210Z,24.75
2018-11-03T06:48:35.480Z,23.77
2018-11-03T06:51:03.853Z,24.32
2018-11-03T06:53:32.000Z,23.73
2018-11-03T06:56:00.141Z,22.52
2018-11-03T06:58:28.276Z,23.85
2018-11-03T07:00:56.422Z,24.12
2018-11-03T07:03:24.562Z,22.55
2018-11-03T07:05:52.713Z,23.30
2018-11-03T07:08:21.005Z,24.12
2018-11-03T07:10:49.211Z,26.35
2018-11-03T07:13:17.374Z,24.52
2018-11-03T07:15:45.447Z,26.73
2018-11-03T07:18:13.606Z,27.90
2018-11-03T07:20:41.748Z,27.17
2018-11-03T07:23:09.882Z,25.48
2018-11-03T07:25:38.021Z,25.17
2018-11-03T07:28:06.166Z,28.15
2018-11-03T07:30:34.285Z,29.27
2018-11-03T07:33:02.418Z,31.30
2018-11-03T07:35:30.523Z,31.27
2018-11-03T07:37:58.636Z,30.72
2018-11-03T07:40:26.733Z,31.12
2018-11-03T07:42:54.850Z,33.92
2018-11-03T07:45:22.977Z,32.30
2018-11-03T07:47:51.136Z,32.17
2018-11-03T07:50:19.228Z,33.35
2018-11-03T07:52:47.335Z,34.08
2018-11-03T07:55:15.432Z,31.37
2018-11-03T07:57:43.526Z,32.55
2018-11-03T08:00:13.064Z,29.48
2018-11-03T08:02:41.160Z,30.30
2018-11-03T08:05:10.734Z,29.57
2018-11-03T08:07:38.829Z,27.10
2018-11-03T08:10:08.220Z,25.80
2018-11-03T08:12:36.467Z,25.08
2018-11-03T08:15:06.762Z,23.45
2018-11-03T08:17:34.878Z,22.98
2018-11-03T08:20:02.980Z,21.87
2018-11-03T08:22:31.110Z,23.55
2018-11-03T08:24:59.241Z,19.60
2018-11-03T08:27:27.840Z,21.35
2018-11-03T08:29:55.951Z,21.55
2018-11-03T08:32:24.061Z,17.82
2018-11-03T08:34:52.183Z,19.15
2018-11-03T08:37:20.289Z,20.15
2018-11-03T08:39:48.458Z,19.77
2018-11-03T08:42:16.493Z,18.85
2018-11-03T08:44:44.604Z,19.90
2018-11-03T08:47:12.765Z,19.73
2018-11-03T08:49:40.881Z,20.77
2018-11-03T08:52:08.994Z,22.35
2018-11-03T08:54:37.095Z,22.22
2018-11-03T08:57:05.486Z,20.60
2018-11-03T08:59:33.643Z,18.50
2018-11-03T09:02:01.712Z,18.23
2018-11-03T09:04:29.848Z,19.05
2018-11-03T09:06:57.973Z,15.20
2018-11-03T09:09:26.096Z,15.50
2018-11-03T09:11:54.182Z,15.75
2018-11-03T09:14:22.352Z,14.35
2018-11-03T09:16:50.395Z,13.68
2018-11-03T09:19:18.501Z,13.00
2018-11-03T09:21:46.750Z,14.00
2018-11-03T09:24:14.855Z,13.80
2018-11-03T09:26:42.940Z,12.82
2018-11-03T09:29:11.112Z,13.58
2018-11-03T09:31:39.268Z,14.30
2018-11-03T09:34:07.337Z,13.20
2018-11-03T09:36:35.454Z,12.80
2018-11-03T09:39:04.258Z,13.20
2018-11-03T09:41:32.342Z,12.58
2018-11-03T09:44:00.462Z,12.93
2018-11-03T09:46:28.650Z,12.00
2018-11-03T09:48:56.697Z,11.80
2018-11-03T09:51:24.826Z,11.00
2018-11-03T09:53:52.941Z,10.97
2018-11-03T09:56:21.240Z,10.57
2018-11-03T09:58:49.397Z,9.37
2018-11-03T10:01:17.497Z,10.73
2018-11-03T10:03:45.607Z,8.47
2018-11-03T10:06:13.994Z,7.67
2018-11-03T10:08:42.089Z,8.43
2018-11-03T10:11:10.308Z,7.07
2018-11-03T10:13:38.396Z,7.70
2018-11-03T10:16:06.739Z,6.40
2018-11-03T10:18:34.732Z,6.27
2018-11-03T10:21:02.840Z,5.43
2018-11-03T10:23:31.009Z,5.90
2018-11-03T10:25:59.115Z,7.10
2018-11-03T10:28:27.229Z,6.97
2018-11-03T10:30:55.329Z,6.80
2018-11-03T10:33:23.461Z,7.37
2018-11-03T10:35:51.549Z,7.03
2018-11-03T10:38:19.662Z,6.90
2018-11-03T10:40:48.044Z,9.43
2018-11-03T10:43:16.196Z,11.07
2018-11-03T10:45:44.375Z,9.40
2018-11-03T10:48:12.746Z,4.83
2018-11-03T10:50:41.195Z,3.97
2018-11-03T10:53:09.265Z,5.10
2018-11-03T10:55:37.374Z,7.10
2018-11-03T10:58:05.660Z,4.60
2018-11-03T11:00:39.307Z,7.27
2018-11-03T11:03:12.979Z,5.40
2018-11-03T11:05:46.910Z,6.80
2018-11-03T11:08:20.462Z,5.93
2018-11-03T11:10:54.396Z,5.63
2018-11-03T11:13:26.441Z,5.37
2018-11-03T11:15:56.175Z,5.57
2018-11-03T11:18:24.245Z,4.73
2018-11-03T11:20:52.561Z,4.53
2018-11-03T11:23:20.742Z,4.83
2018-11-03T11:25:49.302Z,4.90
2018-11-03T11:28:17.444Z,4.40
2018-11-03T11:30:46.097Z,4.77
2018-11-03T11:33:15.481Z,4.23
2018-11-03T11:35:43.660Z,5.93
2018-11-03T11:38:12.752Z,5.37
2018-11-03T11:40:41.223Z,5.63
2018-11-03T11:43:10.344Z,5.20
2018-11-03T11:45:38.596Z,6.47
2018-11-03T11:48:06.732Z,5.03
2018-11-03T11:50:34.859Z,5.60
2018-11-03T11:53:03.146Z,4.93
2018-11-03T11:55:31.890Z,6.50
2018-11-03T11:58:00.840Z,5.10
2018-11-03T12:00:29.426Z,5.13
2018-11-03T12:02:57.703Z,5.17
2018-11-03T12:05:25.829Z,5.10
2018-11-03T12:07:54.112Z,4.73
2018-11-03T12:10:22.466Z,3.77
2018-11-03T12:12:51.073Z,3.70
2018-11-03T12:15:19.390Z,3.00
2018-11-03T12:17:47.860Z,3.20
2018-11-03T12:20:16.045Z,2.63
2018-11-03T12:22:44.176Z,2.67
2018-11-03T12:25:12.752Z,2.33
2018-11-03T12:27:41.377Z,2.43
2018-11-03T12:30:12.798Z,3.97
2018-11-03T12:32:41.862Z,2.73
2018-11-03T12:35:11.181Z,1.77
2018-11-03T12:37:40.369Z,2.13
2018-11-03T12:40:12.417Z,2.50
2018-11-03T12:42:41.014Z,2.40
2018-11-03T12:45:10.810Z,2.17
2018-11-03T12:47:39.682Z,1.70
2018-11-03T12:50:10.127Z,2.00
2018-11-03T12:52:38.795Z,1.73
2018-11-03T12:55:08.767Z,1.83
2018-11-03T12:57:37.365Z,1.63
2018-11-03T13:00:07.236Z,1.97
2018-11-03T13:02:35.357Z,1.97
2018-11-03T13:05:03.960Z,2.33
2018-11-03T13:07:32.458Z,1.97
2018-11-03T13:10:00.651Z,2.03
2018-11-03T13:12:28.685Z,1.70
2018-11-03T13:14:56.800Z,1.50
2018-11-03T13:17:24.894Z,1.40
2018-11-03T13:19:53.053Z,1.43
2018-11-03T13:22:21.148Z,1.33
2018-11-03T13:24:49.280Z,1.30
2018-11-03T13:27:17.398Z,1.60
2018-11-03T13:29:45.505Z,1.27
2018-11-03T13:32:13.669Z,1.60
2018-11-03T13:34:41.807Z,1.50
2018-11-03T13:37:09.943Z,1.20
2018-11-03T13:39:38.077Z,1.17
2018-11-03T13:42:06.241Z,1.27
2018-11-03T13:44:34.382Z,18.47
2018-11-03T13:47:02.552Z,2.63
2018-11-03T13:49:30.654Z,3.80
2018-11-03T13:51:58.813Z,2.70
2018-11-03T13:54:26.958Z,2.10
2018-11-03T13:56:55.104Z,1.60
2018-11-03T13:59:23.228Z,1.20
2018-11-03T14:01:51.361Z,1.17
2018-11-03T14:04:19.484Z,1.37
2018-11-03T14:06:47.608Z,1.70
2018-11-03T14:09:15.753Z,1.13
2018-11-03T14:11:44.022Z,1.50
2018-11-03T14:14:12.166Z,1.83
2018-11-03T14:16:40.284Z,1.67
2018-11-03T14:19:08.470Z,1.13
2018-11-03T14:21:36.737Z,1.53
2018-11-03T14:24:05.357Z,1.10
2018-11-03T14:26:33.494Z,1.80
2018-11-03T14:29:01.829Z,1.60
2018-11-03T14:31:29.813Z,1.20
2018-11-03T14:33:57.953Z,0.93
2018-11-03T14:36:26.181Z,1.33
2018-11-03T14:38:54.239Z,1.40
2018-11-03T14:41:22.382Z,1.30
2018-11-03T14:43:50.512Z,1.27
2018-11-03T14:46:18.633Z,1.60
2018-11-03T14:48:46.753Z,1.10
2018-11-03T14:51:14.892Z,1.30
2018-11-03T14:53:43.022Z,1.33
2018-11-03T14:56:11.185Z,1.27
2018-11-03T14:58:39.359Z,1.77
2018-11-03T15:01:07.503Z,1.60
2018-11-03T15:03:35.704Z,1.30
2018-11-03T15:06:03.831Z,1.30
2018-11-03T15:08:32.038Z,1.23
2018-11-03T15:11:00.189Z,1.70
2018-11-03T15:13:28.347Z,1.33
2018-11-03T15:15:56.569Z,2.13
2018-11-03T15:18:24.696Z,1.50
2018-11-03T15:20:52.853Z,1.57
2018-11-03T15:23:21.005Z,1.47
2018-11-03T15:25:49.161Z,1.30
2018-11-03T15:28:17.323Z,1.20
2018-11-03T15:30:45.461Z,1.33
2018-11-03T15:33:13.637Z,1.43
2018-11-03T15:35:41.756Z,1.20
2018-11-03T15:38:09.897Z,1.53
2018-11-03T15:40:38.068Z,1.40
2018-11-03T15:43:06.231Z,1.73
2018-11-03T15:45:34.357Z,1.47
2018-11-03T15:48:02.518Z,1.40
2018-11-03T15:50:30.642Z,1.57
2018-11-03T15:52:59.700Z,2.90
2018-11-03T15:55:27.856Z,4.00
2018-11-03T15:57:55.982Z,2.60
2018-11-03T16:00:24.138Z,2.13
2018-11-03T16:02:52.278Z,1.80
2018-11-03T16:05:20.458Z,4.60
2018-11-03T16:07:48.653Z,6.97
2018-11-03T16:10:16.790Z,4.42
2018-11-03T16:12:44.993Z,4.22
2018-11-03T16:15:13.616Z,5.30
2018-11-03T16:17:42.147Z,5.05
2018-11-03T16:20:11.549Z,8.43
2018-11-03T16:22:39.736Z,8.38
2018-11-03T16:25:08.509Z,6.90
2018-11-03T16:27:36.999Z,10.63
2018-11-03T16:30:07.275Z,12.25
2018-11-03T16:32:35.584Z,10.95
2018-11-03T16:35:03.544Z,6.70
2018-11-03T16:37:31.671Z,8.20
2018-11-03T16:39:59.814Z,3.95
2018-11-03T16:42:28.078Z,9.55
2018-11-03T16:44:56.197Z,10.10
2018-11-03T16:47:24.308Z,12.28
2018-11-03T16:49:52.446Z,13.90
2018-11-03T16:52:20.573Z,10.65
2018-11-03T16:54:48.786Z,7.78
2018-11-03T16:57:16.933Z,6.65
2018-11-03T16:59:45.073Z,10.78
2018-11-03T17:02:13.193Z,10.85
2018-11-03T17:04:41.305Z,9.33
2018-11-03T17:07:09.412Z,10.40
2018-11-03T17:09:37.559Z,8.90
2018-11-03T17:12:05.689Z,10.00
2018-11-03T17:14:33.951Z,9.18
2018-11-03T17:17:02.037Z,10.55
2018-11-03T17:19:30.144Z,11.57
2018-11-03T17:21:58.242Z,9.93
2018-11-03T17:24:26.340Z,8.20
2018-11-03T17:26:54.463Z,9.78
2018-11-03T17:29:22.556Z,14.53
2018-11-03T17:31:50.768Z,12.75
2018-11-03T17:34:18.897Z,14.07
2018-11-03T17:36:47.073Z,13.32
2018-11-03T17:39:15.212Z,14.03
2018-11-03T17:41:43.334Z,13.93
2018-11-03T17:44:11.554Z,15.15
2018-11-03T17:46:39.650Z,12.55
2018-11-03T17:49:07.832Z,13.15
2018-11-03T17:51:35.971Z,13.35
2018-11-03T17:54:04.298Z,14.25
2018-11-03T17:56:32.566Z,13.08
2018-11-03T17:59:00.700Z,13.65
2018-11-03T18:01:29.071Z,14.00
2018-11-03T18:03:56.963Z,12.20
2018-11-03T18:06:25.103Z,15.18
2018-11-03T18:08:53.229Z,15.85
2018-11-03T18:11:22.052Z,18.20
2018-11-03T18:13:50.197Z,18.23
2018-11-03T18:16:18.517Z,19.27
2018-11-03T18:18:46.648Z,17.98
2018-11-03T18:21:14.777Z,18.50
2018-11-03T18:23:42.962Z,16.48
2018-11-03T18:26:11.498Z,20.30
2018-11-03T18:28:39.558Z,17.40
2018-11-03T18:31:07.675Z,17.92
2018-11-03T18:33:35.835Z,14.85
2018-11-03T18:36:03.922Z,16.57
2018-11-03T18:38:32.008Z,17.75
2018-11-03T18:41:00.274Z,20.68
2018-11-03T18:43:28.434Z,25.95
2018-11-03T18:45:56.619Z,216.40
2018-11-03T18:48:24.730Z,87.27
2018-11-03T18:50:52.869Z,47.93
2018-11-03T18:53:20.981Z,36.53
2018-11-03T18:55:49.117Z,31.48
2018-11-03T18:58:17.284Z,16.23
2018-11-03T19:00:45.407Z,17.10
2018-11-03T19:03:13.531Z,13.70
2018-11-03T19:05:41.643Z,20.95
2018-11-03T19:08:09.775Z,23.67
2018-11-03T19:10:37.875Z,6.17
2018-11-03T19:13:06.052Z,16.25
2018-11-03T19:15:34.158Z,13.98
2018-11-03T19:18:02.260Z,6.65
2018-11-03T19:20:30.377Z,6.70
2018-11-03T19:22:58.483Z,6.70
2018-11-03T19:25:26.594Z,6.50
2018-11-03T19:27:54.690Z,7.30
2018-11-03T19:30:22.911Z,9.75
2018-11-03T19:32:50.969Z,23.87
2018-11-03T19:35:19.139Z,14.58
2018-11-03T19:37:47.289Z,6.08
2018-11-03T19:40:15.460Z,7.40
2018-11-03T19:42:43.585Z,7.40
2018-11-03T19:45:12.424Z,7.35
2018-11-03T19:47:40.520Z,7.00
2018-11-03T19:50:09.294Z,7.55
2018-11-03T19:52:37.441Z,7.62
2018-11-03T19:55:05.824Z,8.25
2018-11-03T19:57:34.180Z,7.35
2018-11-03T20:00:02.326Z,8.00
2018-11-03T20:02:30.494Z,9.95
2018-11-03T20:04:58.624Z,7.97
2018-11-03T20:07:26.761Z,6.10
2018-11-03T20:09:54.898Z,6.87
2018-11-03T20:12:23.043Z,6.45
2018-11-03T20:14:51.620Z,7.05
2018-11-03T20:17:19.745Z,7.90
2018-11-03T20:19:47.882Z,7.30
2018-11-03T20:22:16.020Z,8.43
2018-11-03T20:24:44.197Z,7.20
2018-11-03T20:27:12.343Z,7.15
2018-11-03T20:29:40.482Z,7.40
2018-11-03T20:32:08.630Z,8.00
2018-11-03T20:34:36.768Z,7.65
2018-11-03T20:37:04.970Z,7.33
2018-11-03T20:39:33.193Z,7.60
2018-11-03T20:42:01.344Z,7.50
2018-11-03T20:44:29.441Z,8.63
2018-11-03T20:46:57.595Z,8.05
2018-11-03T20:49:25.711Z,7.65
2018-11-03T20:51:53.851Z,9.33
2018-11-03T20:54:21.979Z,7.95
2018-11-03T20:56:50.175Z,7.40
2018-11-03T20:59:18.299Z,8.78
2018-11-03T21:01:46.441Z,8.43
2018-11-03T21:04:14.557Z,9.43
2018-11-03T21:06:42.689Z,9.05
2018-11-03T21:09:11.446Z,8.80
2018-11-03T21:11:39.605Z,9.05
2018-11-03T21:14:07.814Z,8.65
2018-11-03T21:16:36.021Z,8.63
2018-11-03T21:19:04.206Z,8.65
2018-11-03T21:21:32.382Z,8.90
2018-11-03T21:24:00.593Z,9.40
2018-11-03T21:26:28.685Z,9.10
2018-11-03T21:28:56.834Z,10.10
2018-11-03T21:31:24.929Z,10.50
2018-11-03T21:33:53.104Z,10.40
2018-11-03T21:36:21.194Z,10.50
2018-11-03T21:38:49.496Z,10.10
2018-11-03T21:41:17.553Z,10.40
2018-11-03T21:43:45.669Z,11.08
2018-11-03T21:46:13.908Z,10.75
2018-11-03T21:48:41.875Z,11.68
2018-11-03T21:51:10.189Z,11.70
2018-11-03T21:53:38.339Z,12.40
2018-11-03T21:56:06.557Z,12.65
2018-11-03T21:58:34.653Z,10.40
2018-11-03T22:01:02.742Z,12.60
2018-11-03T22:03:30.866Z,12.18
2018-11-03T22:05:58.964Z,13.70
2018-11-03T22:08:27.082Z,12.88
2018-11-03T22:10:55.175Z,13.20
2018-11-03T22:13:23.314Z,13.22
2018-11-03T22:15:51.565Z,13.40
2018-11-03T22:18:19.710Z,13.55
2018-11-03T22:20:47.789Z,13.13
2018-11-03T22:23:15.898Z,11.95
2018-11-03T22:25:44.014Z,13.75
2018-11-03T22:28:12.120Z,13.80
2018-11-03T22:30:40.268Z,15.25
2018-11-03T22:33:08.380Z,14.35
2018-11-03T22:35:36.494Z,13.22
2018-11-03T22:38:04.620Z,14.40
2018-11-03T22:40:32.798Z,15.03
2018-11-03T22:43:00.937Z,14.53
2018-11-03T22:45:29.106Z,14.98
2018-11-03T22:47:57.221Z,14.53
2018-11-03T22:50:25.400Z,14.78
2018-11-03T22:52:53.550Z,14.25
2018-11-03T22:55:21.661Z,14.30
2018-11-03T22:57:49.748Z,15.03
2018-11-03T23:00:17.864Z,15.28
2018-11-03T23:02:45.984Z,15.15
2018-11-03T23:05:14.219Z,16.55
2018-11-03T23:07:42.539Z,15.83
2018-11-03T23:10:10.596Z,15.60
2018-11-03T23:12:38.779Z,16.12
2018-11-03T23:15:07.632Z,14.85
2018-11-03T23:17:35.728Z,15.63
2018-11-03T23:20:03.977Z,16.12
2018-11-03T23:22:32.081Z,16.17
2018-11-03T23:25:00.199Z,15.70
2018-11-03T23:27:28.309Z,17.80
2018-11-03T23:29:56.579Z,16.27
2018-11-03T23:32:24.588Z,17.05
2018-11-03T23:34:52.724Z,16.07
2018-11-03T23:37:20.849Z,16.27
2018-11-03T23:39:48.985Z,16.37
2018-11-03T23:42:17.134Z,17.50
2018-11-03T23:44:45.326Z,16.05
2018-11-03T23:47:13.426Z,18.57
2018-11-03T23:49:41.571Z,17.40
2018-11-03T23:52:09.705Z,16.10
2018-11-03T23:54:37.845Z,16.97
2018-11-03T23:57:06.085Z,16.90
2018-11-03T23:59:34.353Z,17.12
